• Join FlightAware (Why Join?)
  • Login
  • US Flag 
07:52AM EDT


 

Airport Tracker/Info


-or-


 

Live Flight TrackerFlight Track Log ✈ ASQ5389 ✈ 16-Apr-2013 ✈ KMEM - KRDU

Flight Track Log - Related Links

Times and Time Zones

All times are in EDT time to prevent confusion due to time zone crossing. See the ASQ5389 flight status page for this flight to view local times or setup timezone preferences in your user account.

Time Position Orientation Groundspeed Altitude Reporting Facility
EDT Latitude Longitude Course Direction KTS MPH feet Rate Location/Type
09:29AM 35.0333 -89.9667 180° South 136 157 800  Level KMEM
09:30AM 34.9833 -89.9667 180° South 197 227 2,700 2,100 Climbing KMEM
09:31AM 34.9333 -89.9167 141° Southeast 284 327 5,100 2,100 Climbing KMEM
09:32AM 34.9333 -89.8333 90° East 291 335 7,000 1,620 Climbing KMEM
09:33AM 34.9833 -89.7333 59° Northeast 309 356 8,600 1,860 Climbing KMEM
09:34AM 35.0322 -89.6142 63° Northeast 328 377 11,600 1,800 Climbing Memphis Center
09:35AM 35.0775 -89.5069 63° Northeast 345 397 12,900 1,320 Climbing Memphis Center
09:36AM 35.1286 -89.3922 61° Northeast 367 422 14,300 1,440 Climbing Memphis Center
09:37AM 35.1800 -89.2747 62° Northeast 384 442 15,800 1,500 Climbing Memphis Center
09:38AM 35.2392 -89.1394 62° Northeast 397 457 17,300 1,320 Climbing Memphis Center
09:39AM 35.2878 -89.0139 65° Northeast 407 468 18,500 1,200 Climbing Memphis Center
09:40AM 35.3386 -88.8833 64° Northeast 413 475 19,700 1,200 Climbing Memphis Center
09:41AM 35.3869 -88.7450 67° East 427 491 20,900 600 Climbing Memphis Center
09:42AM 35.4372 -88.6064 66° East 432 497 21,000 600 Climbing Memphis Center
09:43AM 35.4933 -88.4625 64° Northeast 445 512 22,200 960 Climbing Memphis Center
09:44AM 35.5475 -88.3208 65° Northeast 450 518 23,000 900 Climbing Memphis Center
09:45AM 35.5825 -88.1667 74° East 450 518 24,000 900 Climbing Memphis Center
09:46AM 35.5942 -88.0133 85° East 451 519 24,800 720 Climbing Memphis Center
09:47AM 35.6100 -87.8544 83° East 462 532 25,500 600 Climbing Memphis Center
09:48AM 35.6253 -87.6906 83° East 479 551 26,100 480 Climbing Memphis Center
09:49AM 35.6381 -87.5217 85° East 484 557 26,500 360 Climbing Memphis Center
09:50AM 35.6531 -87.3525 84° East 490 564 26,900 300 Climbing Memphis Center
09:51AM 35.6658 -87.2011 84° East 490 564 27,200 300 Climbing Memphis Center
09:52AM 35.6803 -87.0294 84° East 502 578 27,600 420 Climbing Memphis Center
09:53AM 35.6942 -86.8575 84° East 502 578 28,100 540 Climbing Memphis Center
09:54AM 35.7081 -86.6908 84° East 497 572 28,700 420 Climbing Memphis Center
09:55AM 35.7217 -86.5189 84° East 502 578 29,000 120 Climbing Memphis Center
09:56AM 35.7350 -86.3469 84° East 502 578 29,000  Level Memphis Center
09:57AM 35.7500 -86.1697 84° East 502 578 29,000  Level Memphis Center
09:58AM 35.7647 -85.9925 84° East 515 593 29,000  Level Memphis Center
09:59AM 35.7753 -85.8206 86° East 515 593 29,000 240 Level Memphis Center
10:00AM 35.7894 -85.6431 84° East 515 593 29,500 600 Climbing Memphis Center
10:02AM 35.8167 -85.2578 85° East 505 581 31,000 420 Climbing Atlanta Center
10:03AM 35.8286 -85.0864 85° East 500 575 31,000  Level Atlanta Center
10:04AM 35.8403 -84.9044 85° East 504 580 31,000  Level Atlanta Center
10:05AM 35.8519 -84.7433 85° East 523 602 31,000  Level Atlanta Center
10:06AM 35.8631 -84.5742 85° East 515 593 31,000  Level Atlanta Center
10:07AM 35.8742 -84.3975 86° East 515 593 31,000 -240 Level Atlanta Center
10:08AM 35.8850 -84.2181 86° East 515 593 30,600 -420 Descending Atlanta Center
10:09AM 35.8978 -84.0361 85° East 520 598 30,200 -540 Descending Atlanta Center
10:10AM 35.9183 -83.8567 82° East 520 598 29,600 -600 Descending Atlanta Center
10:11AM 35.9806 -83.6922 65° Northeast 511 588 29,100 -300 Descending Atlanta Center
10:12AM 36.0467 -83.5175 65° Northeast 516 594 29,000 -60 Descending Atlanta Center
10:13AM 36.0961 -83.3758 67° East 506 582 29,000  Level Atlanta Center
10:14AM 36.1597 -83.2003 66° East 500 575 29,000  Level Atlanta Center
10:15AM 36.2189 -83.0403 65° Northeast 500 575 29,000  Level Atlanta Center
10:16AM 36.2761 -82.8850 65° Northeast 500 575 29,000  Level Atlanta Center
10:17AM 36.3308 -82.7269 67° East 505 581 29,000  Level Atlanta Center
10:18AM 36.3872 -82.5686 66° East 505 581 29,000  Level Atlanta Center
10:19AM 36.4458 -82.4103 65° Northeast 500 575 29,000  Level Atlanta Center
10:20AM 36.5019 -82.2542 66° East 500 575 29,000  Level Atlanta Center
10:21AM 36.5558 -82.0978 67° East 500 575 29,000  Level Atlanta Center
10:22AM 36.6117 -81.9386 66° East 500 575 29,000  Level Atlanta Center
10:23AM 36.6611 -81.7794 69° East 500 575 29,000  Level Atlanta Center
10:24AM 36.7017 -81.6128 73° East 495 570 29,000 -600 Level Atlanta Center
10:25AM 36.7361 -81.4589 74° East 495 570 27,800 -1,320 Descending Atlanta Center
10:26AM 36.7781 -81.2786 74° East 500 575 26,400 -1,380 Descending Atlanta Center
10:27AM 36.8097 -81.1219 76° East 483 556 25,100 -480 Descending Atlanta Center
10:30AM 36.8933 -80.7681 73° East 478 550 25,000 -60 Descending Washington Center
10:31AM 36.9272 -80.6067 75° East 473 544 25,000  Level Washington Center
10:32AM 36.9681 -80.4272 74° East 478 550 25,000  Level Washington Center
10:33AM 36.9997 -80.2628 76° East 478 550 25,000 -60 Level Washington Center
10:34AM 36.9683 -80.0997 104° East 469 540 24,900 -360 Descending Washington Center
10:35AM 36.9264 -79.9386 108° East 469 540 24,300 -600 Descending Washington Center
10:36AM 36.8856 -79.7911 109° East 483 556 23,700 -600 Descending Washington Center
10:37AM 36.8431 -79.6356 109° East 483 556 23,100 -540 Descending Washington Center
10:38AM 36.8058 -79.4961 108° East 457 526 22,700 -840 Descending Washington Center
10:39AM 36.7631 -79.3408 109° East 432 497 21,500 -1,680 Descending Washington Center
10:40AM 36.6869 -79.2389 133° Southeast 412 474 19,400 -2,160 Descending Washington Center
10:41AM 36.6019 -79.1494 140° Southeast 398 458 17,300 -2,220 Descending Washington Center
10:41AM 36.5714 -79.1197 142° Southeast 389 448 16,400 -2,220 Descending Washington Center
10:42AM 36.5250 -79.0683 138° Southeast 383 441 15,100 -2,040 Descending Washington Center
10:42AM 36.4844 -79.0278 141° Southeast 370 426 14,200 -2,040 Descending Washington Center
10:43AM 36.4458 -78.9875 140° Southeast 370 426 13,100 -1,980 Descending Washington Center
10:43AM 36.3889 -78.9386 145° Southeast 349 402 11,800 -1,800 Descending Washington Center
10:44AM 36.3619 -78.9269 161° South 356 410 11,300 -1,680 Descending Washington Center
10:44AM 36.2981 -78.9089 167° South 330 380 10,100 -1,500 Descending Washington Center
10:45AM 36.2833 -78.9031 162° South 335 386 9,800 -1,140 Descending Washington Center
10:45AM 36.2256 -78.8853 166° South 289 333 9,100 -1,140 Descending Washington Center
10:46AM 36.1964 -78.8789 170° South 305 351 8,700 -1,020 Descending Washington Center
10:46AM 36.1489 -78.8639 166° South 278 320 8,100 -720 Descending Washington Center
10:47AM 36.1219 -78.8578 170° South 289 333 8,000  Descending Washington Center
10:47AM 36.0681 -78.8425 167° South 241 277 8,100  Climbing Washington Center
10:48AM 36.0033 -78.8450 182° South 233 268 8,100 -720 Level Washington Center
10:49AM 35.9464 -78.8683 198° South 225 259 6,700 -1,080 Descending Washington Center
10:50AM 35.9014 -78.9128 219° Southwest 219 252 6,100 -540 Descending Washington Center
10:51AM 35.8925 -78.9303 238° Southwest 219 252 6,100 -900 Level Washington Center
10:51AM 35.8600 -78.9700 225° Southwest 223 257 5,200 -660 Descending Washington Center
10:52AM 35.8192 -79.0169 223° Southwest 228 262 5,100 -480 Descending Washington Center
10:53AM 35.7736 -79.0739 225° Southwest 225 259 4,300 -660 Descending Washington Center
10:54AM 35.7236 -79.0742 180° South 174 200 3,700 -660 Descending Washington Center
10:55AM 35.7272 -79.0231 85° East 168 193 3,000 -300 Descending Washington Center
10:57AM 35.7500 -78.9575 67° East 178 205 3,100  Climbing Washington Center
10:57AM 35.7822 -78.9181 45° Northeast 187 215 3,000 -600 Descending Washington Center
10:58AM 35.8169 -78.8733 46° Northeast 170 196 2,000 -840 Descending Washington Center
10:59AM 35.8406 -78.8436 46° Northeast 137 158 1,400 -780 Descending Washington Center
11:00AM 35.8667 -78.8114 45° Northeast 132 152 600 -840 Descending Washington Center